createdAt,value
2018-09-26T00:00:05.322Z,0.00
2018-09-26T00:01:05.310Z,0.00
2018-09-26T00:02:05.303Z,0.00
2018-09-26T00:03:05.298Z,0.00
2018-09-26T00:04:05.290Z,0.00
2018-09-26T00:05:05.285Z,0.00
2018-09-26T00:06:05.278Z,0.00
2018-09-26T00:07:05.265Z,0.00
2018-09-26T00:08:05.257Z,0.00
2018-09-26T00:09:05.254Z,0.00
2018-09-26T00:10:05.247Z,0.00
2018-09-26T00:11:05.238Z,0.00
2018-09-26T00:12:05.230Z,0.00
2018-09-26T00:13:05.218Z,0.00
2018-09-26T00:14:05.210Z,0.00
2018-09-26T00:15:05.205Z,0.00
2018-09-26T00:16:05.195Z,0.00
2018-09-26T00:17:05.193Z,0.00
2018-09-26T00:18:05.184Z,0.00
2018-09-26T00:19:05.176Z,0.00
2018-09-26T00:20:05.169Z,0.00
2018-09-26T00:21:05.155Z,0.00
2018-09-26T00:22:05.149Z,0.00
2018-09-26T00:23:05.145Z,0.00
2018-09-26T00:24:05.137Z,0.00
2018-09-26T00:25:05.124Z,0.00
2018-09-26T00:26:05.118Z,0.00
2018-09-26T00:27:05.110Z,0.00
2018-09-26T00:28:05.103Z,0.00
2018-09-26T00:29:05.099Z,0.00
2018-09-26T00:30:05.091Z,0.00
2018-09-26T00:31:05.083Z,0.00
2018-09-26T00:32:05.076Z,0.00
2018-09-26T00:33:05.061Z,0.00
2018-09-26T00:34:05.054Z,0.00
2018-09-26T00:35:05.047Z,0.00
2018-09-26T00:36:05.113Z,0.00
2018-09-26T00:37:05.035Z,0.00
2018-09-26T00:38:05.027Z,0.00
2018-09-26T00:39:05.019Z,0.00
2018-09-26T00:40:05.018Z,0.00
2018-09-26T00:41:05.007Z,0.00
2018-09-26T00:42:04.994Z,0.00
2018-09-26T00:43:04.989Z,0.00
2018-09-26T00:44:04.980Z,0.00
2018-09-26T00:45:04.970Z,0.00
2018-09-26T00:46:04.960Z,0.00
2018-09-26T00:47:04.953Z,0.00
2018-09-26T00:48:04.945Z,0.00
2018-09-26T00:49:04.941Z,0.00
2018-09-26T00:50:04.932Z,0.00
2018-09-26T00:51:04.927Z,0.00
2018-09-26T00:52:04.916Z,0.00
2018-09-26T00:53:04.902Z,0.00
2018-09-26T00:54:04.896Z,0.00
2018-09-26T00:55:04.893Z,0.00
2018-09-26T00:56:04.884Z,0.00
2018-09-26T00:57:04.872Z,0.00
2018-09-26T00:58:04.867Z,0.00
2018-09-26T00:59:04.856Z,0.00
2018-09-26T01:00:04.848Z,0.00
2018-09-26T01:01:04.844Z,0.00
2018-09-26T01:02:04.837Z,0.00
2018-09-26T01:03:04.829Z,0.00
2018-09-26T01:04:04.821Z,0.00
2018-09-26T01:05:04.807Z,0.00
2018-09-26T01:06:04.800Z,0.00
2018-09-26T01:07:04.792Z,0.00
2018-09-26T01:08:04.785Z,0.00
2018-09-26T01:09:04.780Z,0.00
2018-09-26T01:10:04.772Z,0.00
2018-09-26T01:11:04.760Z,0.00
2018-09-26T01:12:04.753Z,0.00
2018-09-26T01:13:04.747Z,0.00
2018-09-26T01:14:04.739Z,0.00
2018-09-26T01:15:04.734Z,0.00
2018-09-26T01:16:04.727Z,0.00
2018-09-26T01:17:04.712Z,0.00
2018-09-26T01:18:04.703Z,0.00
2018-09-26T01:19:04.695Z,0.00
2018-09-26T01:20:04.688Z,0.00
2018-09-26T01:21:04.683Z,0.00
2018-09-26T01:22:04.679Z,0.00
2018-09-26T01:23:04.669Z,0.00
2018-09-26T01:24:04.660Z,0.00
2018-09-26T01:25:04.648Z,0.00
2018-09-26T01:26:04.640Z,0.00
2018-09-26T01:27:04.636Z,0.00
2018-09-26T01:28:04.627Z,0.00
2018-09-26T01:29:04.617Z,0.00
2018-09-26T01:30:04.608Z,0.00
2018-09-26T01:31:04.599Z,0.00
2018-09-26T01:32:04.591Z,0.00
2018-09-26T01:33:04.587Z,0.00
2018-09-26T01:34:04.579Z,0.00
2018-09-26T01:35:04.572Z,0.00
2018-09-26T01:36:04.564Z,0.00
2018-09-26T01:37:04.550Z,0.00
2018-09-26T01:38:04.542Z,0.00
2018-09-26T01:39:04.535Z,0.00
2018-09-26T01:40:04.528Z,0.00
2018-09-26T01:41:04.523Z,0.00
2018-09-26T01:42:04.515Z,0.00
2018-09-26T01:43:04.503Z,0.00
2018-09-26T01:44:04.495Z,0.00
2018-09-26T01:45:04.491Z,0.00
2018-09-26T01:46:04.484Z,0.00
2018-09-26T01:47:04.474Z,0.00
2018-09-26T01:48:04.467Z,0.00
2018-09-26T01:49:04.454Z,0.00
2018-09-26T01:50:04.445Z,0.00
2018-09-26T01:51:04.438Z,0.00
2018-09-26T01:52:04.429Z,0.00
2018-09-26T01:53:04.425Z,0.00
2018-09-26T01:54:04.424Z,0.00
2018-09-26T01:55:04.410Z,0.00
2018-09-26T01:56:04.403Z,0.00
2018-09-26T01:57:04.388Z,0.00
2018-09-26T01:58:04.381Z,0.00
2018-09-26T01:59:04.377Z,0.00
2018-09-26T02:00:04.370Z,0.00
2018-09-26T02:01:04.356Z,0.00
2018-09-26T02:02:04.348Z,0.00
2018-09-26T02:03:04.339Z,0.00
2018-09-26T02:04:04.333Z,0.00
2018-09-26T02:05:04.328Z,0.00
2018-09-26T02:06:04.319Z,0.00
2018-09-26T02:07:04.311Z,0.00
2018-09-26T02:08:04.304Z,0.00
2018-09-26T02:09:04.291Z,0.00
2018-09-26T02:10:04.283Z,0.00
2018-09-26T02:11:04.275Z,0.00
2018-09-26T02:12:04.267Z,0.00
2018-09-26T02:13:04.263Z,0.00
2018-09-26T02:14:04.254Z,0.00
2018-09-26T02:15:04.243Z,0.00
2018-09-26T02:16:04.234Z,0.00
2018-09-26T02:17:04.230Z,0.00
2018-09-26T02:18:04.222Z,0.00
2018-09-26T02:19:04.214Z,0.00
2018-09-26T02:20:04.205Z,0.00
2018-09-26T02:21:04.192Z,0.00
2018-09-26T02:22:04.185Z,0.00
2018-09-26T02:23:04.176Z,0.00
2018-09-26T02:24:04.169Z,0.00
2018-09-26T02:25:04.168Z,0.00
2018-09-26T02:26:04.156Z,0.00
2018-09-26T02:27:04.148Z,0.00
2018-09-26T02:28:04.142Z,0.00
2018-09-26T02:29:04.127Z,0.00
2018-09-26T02:30:04.124Z,0.00
2018-09-26T02:31:04.116Z,0.00
2018-09-26T02:32:04.107Z,0.00
2018-09-26T02:33:04.093Z,0.00
2018-09-26T02:34:04.085Z,0.00
2018-09-26T02:35:04.077Z,0.00
2018-09-26T02:36:04.069Z,0.00
2018-09-26T02:37:04.065Z,0.00
2018-09-26T02:38:04.061Z,0.00
2018-09-26T02:39:04.050Z,0.00
2018-09-26T02:40:04.041Z,0.00
2018-09-26T02:41:04.027Z,0.00
2018-09-26T02:42:04.019Z,0.00
2018-09-26T02:43:04.011Z,0.00
2018-09-26T02:44:04.002Z,0.00
2018-09-26T02:45:03.998Z,0.00
2018-09-26T02:46:03.994Z,0.00
2018-09-26T02:47:03.978Z,0.00
2018-09-26T02:48:03.969Z,0.00
2018-09-26T02:49:03.964Z,0.00
2018-09-26T02:50:03.956Z,0.00
2018-09-26T02:51:03.950Z,0.00
2018-09-26T02:52:03.941Z,0.00
2018-09-26T02:53:03.927Z,0.00
2018-09-26T02:54:03.919Z,0.00
2018-09-26T02:55:03.911Z,0.00
2018-09-26T02:56:03.904Z,0.00
2018-09-26T02:57:03.899Z,0.00
2018-09-26T02:58:03.891Z,0.00
2018-09-26T02:59:03.883Z,0.00
2018-09-26T03:00:03.880Z,0.00
2018-09-26T03:01:03.865Z,0.00
2018-09-26T03:02:03.853Z,0.00
2018-09-26T03:03:03.851Z,0.00
2018-09-26T03:04:03.842Z,0.00
2018-09-26T03:05:03.828Z,0.00
2018-09-26T03:06:03.820Z,0.00
2018-09-26T03:07:03.813Z,0.00
2018-09-26T03:08:03.805Z,0.00
2018-09-26T03:09:03.804Z,0.00
2018-09-26T03:10:03.793Z,0.00
2018-09-26T03:11:03.946Z,0.00
2018-09-26T03:12:03.776Z,0.00
2018-09-26T03:13:03.763Z,0.00
2018-09-26T03:14:03.759Z,0.00
2018-09-26T03:15:03.749Z,0.00
2018-09-26T03:16:03.739Z,0.00
2018-09-26T03:17:03.733Z,0.00
2018-09-26T03:18:03.727Z,0.00
2018-09-26T03:19:03.715Z,0.00
2018-09-26T03:20:03.706Z,0.00
2018-09-26T03:21:03.700Z,0.00
2018-09-26T03:22:03.704Z,0.00
2018-09-26T03:23:03.688Z,0.00
2018-09-26T03:24:03.679Z,0.00
2018-09-26T03:25:03.667Z,0.00
2018-09-26T03:26:03.659Z,0.00
2018-09-26T03:27:03.649Z,0.00
2018-09-26T03:28:03.641Z,0.00
2018-09-26T03:29:03.637Z,0.00
2018-09-26T03:30:03.629Z,0.00
2018-09-26T03:31:03.620Z,0.00
2018-09-26T03:32:03.614Z,0.00
2018-09-26T03:33:03.606Z,0.00
2018-09-26T03:34:03.595Z,0.00
2018-09-26T03:35:03.590Z,0.00
2018-09-26T03:36:03.583Z,0.00
2018-09-26T03:37:03.569Z,0.00
2018-09-26T03:38:03.560Z,0.00
2018-09-26T03:39:03.550Z,0.00
2018-09-26T03:40:03.542Z,0.00
2018-09-26T03:41:03.555Z,0.00
2018-09-26T03:42:03.531Z,0.00
2018-09-26T03:43:03.524Z,0.00
2018-09-26T03:44:03.517Z,0.00
2018-09-26T03:45:03.520Z,0.00
2018-09-26T03:46:03.493Z,0.00
2018-09-26T03:47:03.486Z,0.00
2018-09-26T03:48:03.481Z,0.00
2018-09-26T03:49:03.480Z,0.00
2018-09-26T03:50:03.465Z,0.00
2018-09-26T03:51:03.454Z,0.00
2018-09-26T03:52:03.445Z,0.00
2018-09-26T03:53:03.441Z,0.00
2018-09-26T03:54:03.432Z,0.00
2018-09-26T03:55:03.426Z,0.00
2018-09-26T03:56:03.418Z,0.00
2018-09-26T03:57:03.405Z,0.00
2018-09-26T03:58:03.396Z,0.00
2018-09-26T03:59:03.388Z,0.00
2018-09-26T04:00:03.380Z,0.00
2018-09-26T04:01:03.378Z,0.00
2018-09-26T04:02:03.370Z,0.00
2018-09-26T04:03:03.361Z,0.00
2018-09-26T04:04:03.353Z,0.00
2018-09-26T04:05:03.431Z,0.00
2018-09-26T04:06:03.331Z,0.00
2018-09-26T04:07:03.328Z,0.00
2018-09-26T04:08:03.323Z,0.00
2018-09-26T04:09:03.307Z,0.00
2018-09-26T04:10:03.300Z,0.00
2018-09-26T04:11:03.293Z,0.00
2018-09-26T04:12:03.285Z,0.00
2018-09-26T04:13:03.336Z,0.00
2018-09-26T04:14:03.273Z,0.00
2018-09-26T04:15:03.266Z,0.00
2018-09-26T04:16:03.258Z,0.00
2018-09-26T04:17:03.245Z,0.00
2018-09-26T04:18:03.238Z,0.00
2018-09-26T04:19:03.229Z,0.00
2018-09-26T04:20:03.225Z,0.00
2018-09-26T04:21:03.216Z,0.00
2018-09-26T04:22:03.209Z,0.00
2018-09-26T04:23:03.195Z,0.00
2018-09-26T04:24:03.189Z,0.00
2018-09-26T04:25:03.185Z,0.00
2018-09-26T04:26:03.176Z,0.00
2018-09-26T04:27:03.457Z,0.00
2018-09-26T04:28:03.164Z,0.00
2018-09-26T04:29:03.165Z,0.00
2018-09-26T04:30:03.148Z,0.00
2018-09-26T04:31:03.137Z,0.00
2018-09-26T04:32:03.126Z,0.00
2018-09-26T04:33:03.305Z,0.00
2018-09-26T04:34:03.113Z,0.00
2018-09-26T04:35:03.106Z,0.00
2018-09-26T04:36:03.098Z,0.00
2018-09-26T04:37:03.085Z,0.00
2018-09-26T04:38:03.077Z,0.00
2018-09-26T04:39:03.076Z,0.00
2018-09-26T04:40:03.067Z,0.00
2018-09-26T04:41:03.054Z,0.00
2018-09-26T04:42:03.048Z,0.00
2018-09-26T04:43:03.041Z,0.00
2018-09-26T04:44:03.038Z,0.00
2018-09-26T04:45:03.026Z,0.00
2018-09-26T04:46:03.021Z,0.00
2018-09-26T04:47:03.011Z,0.00
2018-09-26T04:48:03.003Z,0.00
2018-09-26T04:49:02.990Z,0.00
2018-09-26T04:50:02.983Z,0.00
2018-09-26T04:51:02.975Z,0.00
2018-09-26T04:52:02.971Z,0.00
2018-09-26T04:53:02.964Z,0.00
2018-09-26T04:54:02.956Z,0.00
2018-09-26T04:55:02.944Z,0.00
2018-09-26T04:56:02.936Z,4.00
2018-09-26T04:57:02.933Z,4.00
2018-09-26T04:58:03.012Z,4.00
2018-09-26T04:59:02.916Z,4.00
2018-09-26T05:00:02.908Z,4.00
2018-09-26T05:01:02.896Z,4.00
2018-09-26T05:02:02.887Z,4.00
2018-09-26T05:03:02.880Z,8.00
2018-09-26T05:04:02.872Z,8.00
2018-09-26T05:05:02.870Z,8.00
2018-09-26T05:06:02.859Z,8.00
2018-09-26T05:07:02.853Z,12.00
2018-09-26T05:08:02.850Z,16.00
2018-09-26T05:09:02.833Z,16.00
2018-09-26T05:10:02.825Z,20.00
2018-09-26T05:11:02.822Z,24.00
2018-09-26T05:12:02.814Z,32.00
2018-09-26T05:13:02.799Z,36.00
2018-09-26T05:14:02.792Z,40.00
2018-09-26T05:15:02.790Z,44.00
2018-09-26T05:16:02.778Z,56.00
2018-09-26T05:17:02.773Z,64.00
2018-09-26T05:18:02.766Z,68.00
2018-09-26T05:19:02.758Z,76.00
2018-09-26T05:20:02.751Z,88.00
2018-09-26T05:21:02.737Z,96.00
2018-09-26T05:22:02.729Z,108.00
2018-09-26T05:23:02.762Z,116.00
2018-09-26T05:24:02.715Z,124.00
2018-09-26T05:25:02.711Z,136.00
2018-09-26T05:26:02.703Z,144.00
2018-09-26T05:27:02.691Z,156.00
2018-09-26T05:28:02.683Z,172.00
2018-09-26T05:29:02.680Z,188.00
2018-09-26T05:30:02.672Z,216.00
2018-09-26T05:31:02.663Z,244.00
2018-09-26T05:32:02.655Z,276.00
2018-09-26T05:33:02.644Z,312.00
2018-09-26T05:34:02.635Z,348.00
2018-09-26T05:35:02.628Z,384.00
2018-09-26T05:36:02.620Z,432.00
2018-09-26T05:37:02.617Z,480.00
2018-09-26T05:38:02.609Z,532.00
2018-09-26T05:39:02.601Z,584.00
2018-09-26T05:40:02.593Z,636.00
2018-09-26T05:41:02.582Z,696.00
2018-09-26T05:42:02.572Z,752.00
2018-09-26T05:43:02.569Z,812.00
2018-09-26T05:44:02.563Z,876.00
2018-09-26T05:45:02.549Z,944.00
2018-09-26T05:46:02.541Z,1016.00
2018-09-26T05:47:02.533Z,1088.00
2018-09-26T05:48:02.528Z,1164.00
2018-09-26T05:49:02.523Z,1248.00
2018-09-26T05:50:02.573Z,1336.00
2018-09-26T05:51:02.507Z,1428.00
2018-09-26T05:52:02.500Z,1528.00
2018-09-26T05:53:02.486Z,1628.00
2018-09-26T05:54:02.478Z,1736.00
2018-09-26T05:55:02.471Z,1844.00
2018-09-26T05:56:02.462Z,1976.00
2018-09-26T05:57:02.459Z,2140.00
2018-09-26T05:58:02.451Z,2312.00
2018-09-26T05:59:02.441Z,2436.00
2018-09-26T06:00:02.434Z,2600.00
2018-09-26T06:01:02.428Z,2744.00
2018-09-26T06:02:02.420Z,2892.00
2018-09-26T06:03:02.414Z,2972.00
2018-09-26T06:04:02.410Z,2852.00
2018-09-26T06:05:02.396Z,2780.00
2018-09-26T06:06:02.386Z,2808.00
2018-09-26T06:07:02.380Z,2944.00
2018-09-26T06:08:02.371Z,3108.00
2018-09-26T06:09:02.369Z,3376.00
2018-09-26T06:10:02.373Z,3564.00
2018-09-26T06:11:02.362Z,3712.00
2018-09-26T06:12:02.348Z,4176.00
2018-09-26T06:13:02.396Z,4604.00
2018-09-26T06:14:02.330Z,4968.00
2018-09-26T06:15:02.338Z,5616.00
2018-09-26T06:16:02.317Z,6036.00
2018-09-26T06:17:02.307Z,6304.00
2018-09-26T06:18:02.303Z,6964.00
2018-09-26T06:19:02.333Z,7284.00
2018-09-26T06:20:02.287Z,6892.00
2018-09-26T06:21:02.285Z,5996.00
2018-09-26T06:22:02.278Z,5140.00
2018-09-26T06:23:02.272Z,4528.00
2018-09-26T06:24:02.265Z,4632.00
2018-09-26T06:25:02.255Z,5652.00
2018-09-26T06:26:02.248Z,7044.00
2018-09-26T06:27:02.241Z,7484.00
2018-09-26T06:28:02.235Z,7272.00
2018-09-26T06:29:02.231Z,7108.00
2018-09-26T06:30:02.226Z,7112.00
2018-09-26T06:31:02.215Z,6456.00
2018-09-26T06:32:02.210Z,5992.00
2018-09-26T06:33:02.208Z,5748.00
2018-09-26T06:34:02.202Z,5528.00
2018-09-26T06:35:02.277Z,5468.00
2018-09-26T06:36:02.190Z,5468.00
2018-09-26T06:37:02.179Z,5428.00
2018-09-26T06:38:02.173Z,5312.00
2018-09-26T06:39:02.171Z,5500.00
2018-09-26T06:40:02.166Z,5800.00
2018-09-26T06:41:02.160Z,5936.00
2018-09-26T06:42:02.158Z,5964.00
2018-09-26T06:43:02.150Z,6044.00
2018-09-26T06:44:02.144Z,6204.00
2018-09-26T06:45:02.137Z,6416.00
2018-09-26T06:46:02.128Z,6680.00
2018-09-26T06:47:02.126Z,7004.00
2018-09-26T06:48:02.121Z,7412.00
2018-09-26T06:49:02.110Z,7868.00
2018-09-26T06:50:02.108Z,8860.00
2018-09-26T06:51:02.102Z,9592.00
2018-09-26T06:52:02.092Z,9948.00
2018-09-26T06:53:02.091Z,10584.00
2018-09-26T06:54:02.112Z,11484.00
2018-09-26T06:55:02.081Z,8060.00
2018-09-26T06:56:02.074Z,8572.00
2018-09-26T06:57:02.068Z,9056.00
2018-09-26T06:58:02.059Z,9324.00
2018-09-26T06:59:02.055Z,9304.00
2018-09-26T07:00:02.050Z,9172.00
2018-09-26T07:01:02.050Z,9304.00
2018-09-26T07:02:02.044Z,9384.00
2018-09-26T07:03:02.034Z,9632.00
2018-09-26T07:04:02.030Z,10004.00
2018-09-26T07:05:02.029Z,10508.00
2018-09-26T07:06:02.025Z,11112.00
2018-09-26T07:07:02.020Z,11652.00
2018-09-26T07:08:02.015Z,11712.00
2018-09-26T07:09:02.005Z,11460.00
2018-09-26T07:10:02.002Z,11272.00
2018-09-26T07:11:01.997Z,11256.00
2018-09-26T07:12:02.013Z,11260.00
2018-09-26T07:13:01.993Z,11240.00
2018-09-26T07:14:01.990Z,11072.00
2018-09-26T07:15:01.988Z,11056.00
2018-09-26T07:16:01.986Z,10936.00
2018-09-26T07:17:01.975Z,11136.00
2018-09-26T07:18:01.974Z,11048.00
2018-09-26T07:19:01.976Z,11336.00
2018-09-26T07:20:01.973Z,11644.00
2018-09-26T07:21:01.963Z,11764.00
2018-09-26T07:22:01.963Z,11964.00
2018-09-26T07:23:01.958Z,11804.00
2018-09-26T07:24:02.005Z,12256.00
2018-09-26T07:25:01.960Z,12200.00
2018-09-26T07:26:01.956Z,12332.00
2018-09-26T07:27:01.954Z,12368.00
2018-09-26T07:28:01.953Z,12344.00
2018-09-26T07:29:01.946Z,12292.00
2018-09-26T07:30:01.944Z,12040.00
2018-09-26T07:31:01.942Z,12244.00
2018-09-26T07:32:01.941Z,12548.00
2018-09-26T07:33:01.944Z,12792.00
2018-09-26T07:34:01.942Z,12960.00
2018-09-26T07:35:01.936Z,13500.00
2018-09-26T07:36:01.934Z,13544.00
2018-09-26T07:37:01.938Z,13892.00
2018-09-26T07:38:01.937Z,13652.00
2018-09-26T07:39:01.936Z,13116.00
2018-09-26T07:40:01.934Z,13020.00
2018-09-26T07:41:01.929Z,13012.00
2018-09-26T07:42:01.928Z,13056.00
2018-09-26T07:43:01.927Z,12664.00
2018-09-26T07:44:02.037Z,12500.00
2018-09-26T07:45:01.930Z,12584.00
2018-09-26T07:46:01.931Z,12824.00
2018-09-26T07:47:01.929Z,12632.00
2018-09-26T07:48:01.929Z,12764.00
2018-09-26T07:49:01.924Z,12916.00
2018-09-26T07:50:01.930Z,13156.00
2018-09-26T07:51:01.928Z,13176.00
2018-09-26T07:52:01.927Z,13276.00
2018-09-26T07:53:01.947Z,13612.00
2018-09-26T07:54:01.924Z,13960.00
2018-09-26T07:55:01.924Z,13904.00
2018-09-26T07:56:01.924Z,13588.00
2018-09-26T07:57:01.927Z,13572.00
2018-09-26T07:58:01.929Z,13896.00
2018-09-26T07:59:01.934Z,14044.00
2018-09-26T08:00:01.960Z,14124.00
2018-09-26T08:01:01.922Z,14212.00
2018-09-26T08:02:01.926Z,14144.00
2018-09-26T08:03:01.923Z,13552.00
2018-09-26T08:04:01.924Z,13712.00
2018-09-26T08:05:01.928Z,14024.00
2018-09-26T08:06:02.029Z,13960.00
2018-09-26T08:07:01.925Z,14268.00
2018-09-26T08:08:01.926Z,14564.00
2018-09-26T08:09:01.931Z,14692.00
2018-09-26T08:10:01.931Z,14820.00
2018-09-26T08:11:01.936Z,15264.00
2018-09-26T08:12:01.934Z,16128.00
2018-09-26T08:13:01.930Z,16320.00
2018-09-26T08:14:01.931Z,16320.00
2018-09-26T08:15:01.932Z,16352.00
2018-09-26T08:16:01.931Z,17568.00
2018-09-26T08:17:01.941Z,17760.00
2018-09-26T08:18:01.947Z,18080.00
2018-09-26T08:19:01.939Z,18208.00
2018-09-26T08:20:01.944Z,19680.00
2018-09-26T08:21:01.937Z,20640.00
2018-09-26T08:22:01.939Z,21600.00
2018-09-26T08:23:01.944Z,23168.00
2018-09-26T08:24:02.101Z,24672.00
2018-09-26T08:25:01.943Z,26208.00
2018-09-26T08:26:01.944Z,27008.00
2018-09-26T08:27:01.947Z,26880.00
2018-09-26T08:28:01.949Z,25152.00
2018-09-26T08:29:01.960Z,24512.00
2018-09-26T08:30:01.958Z,25152.00
2018-09-26T08:31:01.960Z,25472.00
2018-09-26T08:32:01.963Z,24352.00
2018-09-26T08:33:01.961Z,22336.00
2018-09-26T08:34:01.963Z,21760.00
2018-09-26T08:35:01.967Z,21632.00
2018-09-26T08:36:01.969Z,22752.00
2018-09-26T08:37:01.976Z,25280.00
2018-09-26T08:38:01.979Z,25792.00
2018-09-26T08:39:01.977Z,25536.00
2018-09-26T08:40:01.984Z,26784.00
2018-09-26T08:41:01.988Z,25856.00
2018-09-26T08:42:01.992Z,25344.00
2018-09-26T08:43:01.996Z,26784.00
2018-09-26T08:44:02.043Z,27008.00
2018-09-26T08:45:02.001Z,27296.00
2018-09-26T08:46:02.003Z,26624.00
2018-09-26T08:47:02.013Z,26784.00
2018-09-26T08:48:02.019Z,27712.00
2018-09-26T08:49:02.020Z,29792.00
2018-09-26T08:50:02.026Z,29120.00
2018-09-26T08:51:02.031Z,30784.00
2018-09-26T08:52:02.035Z,32032.00
2018-09-26T08:53:02.036Z,34592.00
2018-09-26T08:54:02.047Z,33312.00
2018-09-26T08:55:02.050Z,33056.00
2018-09-26T08:56:02.056Z,31040.00
2018-09-26T08:57:02.057Z,32320.00
2018-09-26T08:58:02.059Z,34848.00
2018-09-26T08:59:02.063Z,37184.00
2018-09-26T09:00:02.076Z,38144.00
2018-09-26T09:01:02.081Z,39712.00
2018-09-26T09:02:02.083Z,38272.00
2018-09-26T09:03:02.091Z,36864.00
2018-09-26T09:04:02.096Z,35328.00
2018-09-26T09:05:02.098Z,35232.00
2018-09-26T09:06:02.111Z,32992.00
2018-09-26T09:07:02.108Z,30560.00
2018-09-26T09:08:02.116Z,28480.00
2018-09-26T09:09:02.125Z,26304.00
2018-09-26T09:10:02.130Z,21504.00
2018-09-26T09:11:02.130Z,21568.00
2018-09-26T09:12:02.141Z,22144.00
2018-09-26T09:13:02.147Z,20672.00
2018-09-26T09:14:02.153Z,20832.00
2018-09-26T09:15:02.159Z,19776.00
2018-09-26T09:16:02.165Z,19904.00
2018-09-26T09:17:02.166Z,20608.00
2018-09-26T09:18:02.169Z,20704.00
2018-09-26T09:19:02.177Z,18624.00
2018-09-26T09:20:02.182Z,15872.00
2018-09-26T09:21:02.191Z,15840.00
2018-09-26T09:22:02.199Z,15840.00
2018-09-26T09:23:02.202Z,14732.00
2018-09-26T09:24:02.206Z,13888.00
2018-09-26T09:25:02.206Z,13392.00
2018-09-26T09:26:02.210Z,12552.00
2018-09-26T09:27:02.235Z,12404.00
2018-09-26T09:28:02.225Z,12108.00
2018-09-26T09:29:02.223Z,11740.00
2018-09-26T09:30:02.226Z,11628.00
2018-09-26T09:31:02.230Z,11264.00
2018-09-26T09:32:02.236Z,10772.00
2018-09-26T09:33:02.242Z,10604.00
2018-09-26T09:34:02.247Z,10588.00
2018-09-26T09:35:02.249Z,10452.00
2018-09-26T09:36:02.252Z,10528.00
2018-09-26T09:37:02.250Z,11432.00
2018-09-26T09:38:02.252Z,12024.00
2018-09-26T09:39:02.255Z,12960.00
2018-09-26T09:40:02.258Z,14036.00
2018-09-26T09:41:02.266Z,14992.00
2018-09-26T09:42:02.269Z,16448.00
2018-09-26T09:43:02.263Z,18368.00
2018-09-26T09:44:02.283Z,20736.00
2018-09-26T09:45:02.274Z,21376.00
2018-09-26T09:46:02.277Z,21664.00
2018-09-26T09:47:02.278Z,21600.00
2018-09-26T09:48:02.281Z,22784.00
2018-09-26T09:49:02.280Z,22784.00
2018-09-26T09:50:02.281Z,22656.00
2018-09-26T09:51:02.286Z,22048.00
2018-09-26T09:52:02.290Z,23008.00
2018-09-26T09:53:02.297Z,21408.00
2018-09-26T09:54:02.302Z,23584.00
2018-09-26T09:55:02.306Z,23392.00
2018-09-26T09:56:02.311Z,23744.00
2018-09-26T09:57:02.310Z,23136.00
2018-09-26T09:58:02.315Z,22368.00
2018-09-26T09:59:02.324Z,22368.00
2018-09-26T10:00:02.329Z,24224.00
2018-09-26T10:01:02.329Z,23264.00
2018-09-26T10:02:02.335Z,22368.00
2018-09-26T10:03:02.501Z,23360.00
2018-09-26T10:04:02.349Z,24480.00
2018-09-26T10:05:02.361Z,24960.00
2018-09-26T10:06:02.372Z,25408.00
2018-09-26T10:07:02.372Z,27872.00
2018-09-26T10:08:02.379Z,28704.00
2018-09-26T10:09:02.380Z,29920.00
2018-09-26T10:10:02.387Z,29376.00
2018-09-26T10:11:02.395Z,29280.00
2018-09-26T10:12:02.402Z,31456.00
2018-09-26T10:13:02.417Z,33024.00
2018-09-26T10:14:02.422Z,33952.00
2018-09-26T10:15:02.426Z,33600.00
2018-09-26T10:16:02.435Z,33408.00
2018-09-26T10:17:02.447Z,33248.00
2018-09-26T10:18:02.463Z,35104.00
2018-09-26T10:19:02.467Z,35904.00
2018-09-26T10:20:02.476Z,32512.00
2018-09-26T10:21:02.480Z,29376.00
2018-09-26T10:22:02.489Z,29600.00
2018-09-26T10:23:02.500Z,27072.00
2018-09-26T10:24:02.510Z,28480.00
2018-09-26T10:25:02.571Z,30784.00
2018-09-26T10:26:02.535Z,30784.00
2018-09-26T10:27:02.544Z,36896.00
2018-09-26T10:28:02.555Z,50560.00
2018-09-26T10:29:02.560Z,49728.00
2018-09-26T10:30:02.571Z,56960.00
2018-09-26T10:31:02.585Z,55616.00
2018-09-26T10:32:02.596Z,40160.00
2018-09-26T10:33:02.600Z,29376.00
2018-09-26T10:34:02.612Z,27072.00
2018-09-26T10:35:02.692Z,28160.00
2018-09-26T10:36:02.632Z,26272.00
2018-09-26T10:37:02.648Z,26720.00
2018-09-26T10:38:02.659Z,26432.00
2018-09-26T10:39:02.669Z,24512.00
2018-09-26T10:40:02.681Z,24512.00
2018-09-26T10:41:02.685Z,24608.00
2018-09-26T10:42:02.698Z,23712.00
2018-09-26T10:43:02.704Z,25856.00
2018-09-26T10:44:02.717Z,25216.00
2018-09-26T10:45:02.734Z,25280.00
2018-09-26T10:46:02.740Z,24896.00
2018-09-26T10:47:02.746Z,24256.00
2018-09-26T10:48:02.758Z,24768.00
2018-09-26T10:49:02.771Z,22560.00
2018-09-26T10:50:02.783Z,22304.00
2018-09-26T10:51:02.793Z,23040.00
2018-09-26T10:52:02.802Z,23040.00
2018-09-26T10:53:02.851Z,22592.00
2018-09-26T10:54:02.819Z,22848.00
2018-09-26T10:55:02.829Z,23104.00
2018-09-26T10:56:02.841Z,22816.00
2018-09-26T10:57:02.853Z,21792.00
2018-09-26T10:58:02.863Z,22304.00
2018-09-26T10:59:02.875Z,21248.00
2018-09-26T11:00:02.885Z,21568.00
2018-09-26T11:01:02.889Z,23200.00
2018-09-26T11:02:02.972Z,22816.00
2018-09-26T11:03:02.915Z,22432.00
2018-09-26T11:04:02.926Z,21408.00
2018-09-26T11:05:02.931Z,21152.00
2018-09-26T11:06:02.941Z,21344.00
2018-09-26T11:07:02.949Z,21824.00
2018-09-26T11:08:02.961Z,21216.00
2018-09-26T11:09:02.973Z,22048.00
2018-09-26T11:10:02.984Z,21632.00
2018-09-26T11:11:02.993Z,21856.00
2018-09-26T11:12:03.004Z,21792.00
2018-09-26T11:13:03.010Z,21984.00
2018-09-26T11:14:03.019Z,22464.00
2018-09-26T11:15:03.029Z,22592.00
2018-09-26T11:16:03.040Z,23264.00
2018-09-26T11:17:03.053Z,19072.00
2018-09-26T11:18:03.062Z,10392.00
2018-09-26T11:19:03.067Z,7196.00
2018-09-26T11:20:03.077Z,6788.00
2018-09-26T11:21:03.090Z,6580.00
2018-09-26T11:22:03.099Z,6348.00
2018-09-26T11:23:03.107Z,6032.00
2018-09-26T11:24:03.115Z,6076.00
2018-09-26T11:25:03.117Z,6068.00
2018-09-26T11:26:03.131Z,6136.00
2018-09-26T11:27:03.133Z,6124.00
2018-09-26T11:28:03.141Z,6064.00
2018-09-26T11:29:03.155Z,6016.00
2018-09-26T11:30:03.159Z,6016.00
2018-09-26T11:31:03.164Z,6000.00
2018-09-26T11:32:03.170Z,5972.00
2018-09-26T11:33:03.171Z,6028.00
2018-09-26T11:34:03.175Z,6000.00
2018-09-26T11:35:03.189Z,5968.00
2018-09-26T11:36:03.192Z,5856.00
2018-09-26T11:37:03.192Z,5740.00
2018-09-26T11:38:03.197Z,5652.00
2018-09-26T11:39:03.201Z,5556.00
2018-09-26T11:40:03.205Z,5580.00
2018-09-26T11:41:03.213Z,5632.00
2018-09-26T11:42:03.218Z,5660.00
2018-09-26T11:43:03.221Z,5564.00
2018-09-26T11:44:03.225Z,5672.00
2018-09-26T11:45:03.224Z,5624.00
2018-09-26T11:46:03.228Z,5556.00
2018-09-26T11:47:03.230Z,5584.00
2018-09-26T11:48:03.234Z,5556.00
2018-09-26T11:49:03.241Z,5540.00
2018-09-26T11:50:03.248Z,5484.00
2018-09-26T11:51:03.245Z,5448.00
2018-09-26T11:52:03.245Z,5392.00
2018-09-26T11:53:03.253Z,5344.00
2018-09-26T11:54:03.254Z,5352.00
2018-09-26T11:55:03.256Z,5280.00
2018-09-26T11:56:03.281Z,5292.00
2018-09-26T11:57:03.255Z,5248.00
2018-09-26T11:58:03.257Z,5200.00
2018-09-26T11:59:03.258Z,5152.00
2018-09-26T12:00:03.261Z,5104.00
2018-09-26T12:01:03.264Z,4992.00
2018-09-26T12:02:03.268Z,4872.00
2018-09-26T12:03:03.269Z,4784.00
2018-09-26T12:04:03.275Z,4644.00
2018-09-26T12:05:03.266Z,4528.00
2018-09-26T12:06:03.268Z,4444.00
2018-09-26T12:07:03.322Z,4384.00
2018-09-26T12:08:03.275Z,4304.00
2018-09-26T12:09:03.270Z,4232.00
2018-09-26T12:10:03.270Z,4188.00
2018-09-26T12:11:03.279Z,4200.00
2018-09-26T12:12:03.275Z,4132.00
2018-09-26T12:13:03.276Z,4144.00
2018-09-26T12:14:03.278Z,4136.00
2018-09-26T12:15:03.278Z,4100.00
2018-09-26T12:16:03.278Z,4080.00
2018-09-26T12:17:03.275Z,4016.00
2018-09-26T12:18:03.274Z,3956.00
2018-09-26T12:19:03.279Z,3964.00
2018-09-26T12:20:03.277Z,3980.00
2018-09-26T12:21:03.282Z,3940.00
2018-09-26T12:22:03.330Z,3900.00
2018-09-26T12:23:03.280Z,3864.00
2018-09-26T12:24:03.278Z,3848.00
2018-09-26T12:25:03.283Z,3812.00
2018-09-26T12:26:03.283Z,3776.00
2018-09-26T12:27:03.283Z,3740.00